Harar Meda, Ethiopia

4:50 PM EAT on September 30, 2014 (GMT +0300)
Bole International | Change Station
CLOSE
Current Station
Airport
Location: Addis Ababa,
Elevation: 7726 ft
Nearby Weather Stations

Elev 7726 ft 8.98 °N, 38.80 °E | Updated -575 second ago

Scattered Clouds
Scattered Clouds
73 °F
Feels Like 73 °F
N
16
Wind Variable Wind from ESE

Today
High -- | Low -- °F
--% Chance of Precip.
Yesterday
High -- | Low -- °F
Precip. -- in
6:12 AM 6:15 PM
Waxing Crescent, 37% visible
Pressure 30.24 in
Visibility 6.2 miles
Clouds Scattered Clouds 2500 ft
Dew Point 54 °F
Humidity 50%
Rainfall 0.00 in
Snow Depth Not available.
UV 1 out of 12
Pollen Not available.
Air Quality Not available.
Flu Activity Not available.
METAR HAAB 301400Z 12014KT 9999 SCT025 23/12 Q1024

More Conditions Fewer Conditions

Pressure 30.24 in
Visibility 6.2 miles
Clouds Scattered Clouds 2500 ft
Dew Point 54 °F
Humidity 50%
Rainfall 0.00 in
Snow Depth Not available.
UV 1 out of 12
Pollen Not available.
Air Quality Not available.
Flu Activity Not available.
METAR HAAB 301400Z 12014KT 9999 SCT025 23/12 Q1024

More Conditions Fewer Conditions

10-Day Weather Forecast

Almanac

Astronomy

Sep. 30, 2014 Rise Set
Actual Time 6:12 AM EAT 6:15 PM EAT
Civil Twilight 5:51 AM EAT 6:36 PM EAT
Nautical Twilight 5:27 AM EAT 7:00 PM EAT
Astronomical Twilight 5:02 AM EAT 7:25 PM EAT
Moon 11:11 AM EAT 11:13 PM EAT
Length of Visible Light 12h 44m
Length of Day
12h 03m
Tomorrow will be 0m 28s shorter.
Waxing Crescent, 37% of the Moon is Illuminated
Today
Waxing Crescent
Oct 1
First Quarter
Oct 8
Full
Oct 15
Last Quarter
Oct 23
New

Yesterday's Extremes

Country Highs Country Lows

Community

WunderPhotos

Upload Photos

1,757,636 photos uploaded!

Nearby

Snow Depth

Not available.

Earthquake Activity

City Distance Mag. Time & Date
No recent earthquake activity has been reported nearby.
Minimum magnitude displayed is 2.5.

Coastal Water Temperatures

Place Temperature
No Stations Reporting

Nearby Weather Stations